createdAt,value
2022-11-07T00:00:30.430Z,72.38
2022-11-07T00:02:32.849Z,72.41
2022-11-07T00:04:35.707Z,72.18
2022-11-07T00:06:38.096Z,72.30
2022-11-07T00:08:41.107Z,72.23
2022-11-07T00:10:44.006Z,72.21
2022-11-07T00:12:46.057Z,72.33
2022-11-07T00:14:48.517Z,72.23
2022-11-07T00:16:51.706Z,72.23
2022-11-07T00:18:55.386Z,72.67
2022-11-07T00:21:02.250Z,73.03
2022-11-07T00:23:04.840Z,72.83
2022-11-07T00:25:09.167Z,72.86
2022-11-07T00:27:11.900Z,72.98
2022-11-07T00:29:17.459Z,72.93
2022-11-07T00:31:20.312Z,72.49
2022-11-07T00:33:23.925Z,72.34
2022-11-07T00:35:26.038Z,72.62
2022-11-07T00:37:28.008Z,72.82
2022-11-07T00:39:31.162Z,73.07
2022-11-07T00:41:34.019Z,72.96
2022-11-07T00:43:37.510Z,73.08
2022-11-07T00:45:41.284Z,73.35
2022-11-07T00:47:43.378Z,73.03
2022-11-07T00:49:45.488Z,73.50
2022-11-07T00:51:47.801Z,73.26
2022-11-07T00:53:51.101Z,73.59
2022-11-07T00:55:54.102Z,73.60
2022-11-07T00:57:57.568Z,73.23
2022-11-07T00:59:59.883Z,73.19
2022-11-07T01:02:02.598Z,73.73
2022-11-07T01:04:14.398Z,72.95
2022-11-07T01:06:16.698Z,73.63
2022-11-07T01:08:18.737Z,73.49
2022-11-07T01:10:22.287Z,73.57
2022-11-07T01:12:25.833Z,73.49
2022-11-07T01:14:28.314Z,73.04
2022-11-07T01:16:32.661Z,73.14
2022-11-07T01:18:35.902Z,73.18
2022-11-07T01:20:39.689Z,73.02
2022-11-07T01:22:41.701Z,72.79
2022-11-07T01:24:44.976Z,72.91
2022-11-07T01:26:48.592Z,73.21
2022-11-07T01:28:50.633Z,73.04
2022-11-07T01:30:52.633Z,72.94
2022-11-07T01:32:56.736Z,73.48
2022-11-07T01:34:58.597Z,73.16
2022-11-07T01:37:00.509Z,73.05
2022-11-07T01:39:02.887Z,73.19
2022-11-07T01:41:15.720Z,73.57
2022-11-07T01:43:17.928Z,73.05
2022-11-07T01:45:23.972Z,73.58
2022-11-07T01:47:31.646Z,73.90
2022-11-07T01:49:39.038Z,73.90
2022-11-07T01:51:49.759Z,74.08
2022-11-07T01:53:53.331Z,73.88
2022-11-07T01:55:55.387Z,74.10
2022-11-07T01:58:00.179Z,74.22
2022-11-07T02:00:07.893Z,74.59
2022-11-07T02:02:10.818Z,74.32
2022-11-07T02:04:13.955Z,74.19
2022-11-07T02:06:23.807Z,74.13
2022-11-07T02:08:27.674Z,74.24
2022-11-07T02:10:30.816Z,74.24
2022-11-07T02:12:33.389Z,73.98
2022-11-07T02:14:35.667Z,73.83
2022-11-07T02:16:37.767Z,73.85
2022-11-07T02:18:42.724Z,74.49
2022-11-07T02:20:47.028Z,74.50
2022-11-07T02:22:53.516Z,75.00
2022-11-07T02:25:00.110Z,74.38
2022-11-07T02:27:08.080Z,74.27
2022-11-07T02:29:13.680Z,74.48
2022-11-07T02:31:16.238Z,74.10
2022-11-07T02:33:22.237Z,74.51
2022-11-07T02:35:34.210Z,74.54
2022-11-07T02:37:39.504Z,74.51
2022-11-07T02:39:42.121Z,74.46
2022-11-07T02:41:46.998Z,74.57
2022-11-07T02:43:53.737Z,74.51
2022-11-07T02:45:59.941Z,74.64
2022-11-07T02:48:02.388Z,74.55
2022-11-07T02:50:08.649Z,74.33
2022-11-07T02:52:10.885Z,74.44
2022-11-07T02:54:13.503Z,74.32
2022-11-07T02:56:16.449Z,74.37
2022-11-07T02:58:18.677Z,74.11
2022-11-07T03:00:20.762Z,74.32
2022-11-07T03:02:23.550Z,74.16
2022-11-07T03:04:26.559Z,74.11
2022-11-07T03:06:28.849Z,74.18
2022-11-07T03:08:30.968Z,73.62
2022-11-07T03:10:34.155Z,73.45
2022-11-07T03:12:37.373Z,73.60
2022-11-07T03:14:40.022Z,73.44
2022-11-07T03:16:42.558Z,73.56
2022-11-07T03:18:45.435Z,73.11
2022-11-07T03:20:47.952Z,73.45
2022-11-07T03:22:50.079Z,72.85
2022-11-07T03:24:52.958Z,73.00
2022-11-07T03:26:56.533Z,73.21
2022-11-07T03:29:00.607Z,73.28
2022-11-07T03:31:04.485Z,73.16
2022-11-07T03:33:06.925Z,73.20
2022-11-07T03:35:10.107Z,73.14
2022-11-07T03:37:12.405Z,72.92
2022-11-07T03:39:15.816Z,72.94
2022-11-07T03:41:18.129Z,72.88
2022-11-07T03:43:20.131Z,72.78
2022-11-07T03:45:23.218Z,72.93
2022-11-07T03:47:26.266Z,73.09
2022-11-07T03:49:28.778Z,73.03
2022-11-07T03:51:32.477Z,73.15
2022-11-07T03:53:35.878Z,73.19
2022-11-07T03:55:38.027Z,72.98
2022-11-07T03:57:40.772Z,73.08
2022-11-07T03:59:42.960Z,73.20
2022-11-07T04:01:48.812Z,73.24
2022-11-07T04:03:55.277Z,73.23
2022-11-07T04:05:59.898Z,73.51
2022-11-07T04:08:02.178Z,73.25
2022-11-07T04:10:06.834Z,73.28
2022-11-07T04:12:22.658Z,73.23
2022-11-07T04:14:36.607Z,73.50
2022-11-07T04:16:48.692Z,73.77
2022-11-07T04:18:50.888Z,73.67
2022-11-07T04:20:53.331Z,74.10
2022-11-07T04:22:55.623Z,74.64
2022-11-07T04:24:57.651Z,74.55
2022-11-07T04:27:10.047Z,74.29
2022-11-07T04:29:13.677Z,74.30
2022-11-07T04:31:17.365Z,74.54
2022-11-07T04:33:19.407Z,74.40
2022-11-07T04:35:26.080Z,74.36
2022-11-07T04:37:28.673Z,74.71
2022-11-07T04:39:30.773Z,74.59
2022-11-07T04:41:33.805Z,74.97
2022-11-07T04:43:37.958Z,74.92
2022-11-07T04:45:41.607Z,74.70
2022-11-07T04:47:44.570Z,74.72
2022-11-07T04:49:46.607Z,74.65
2022-11-07T04:51:50.592Z,74.87
2022-11-07T04:53:53.173Z,75.11
2022-11-07T04:55:56.601Z,74.84
2022-11-07T04:58:00.262Z,74.80
2022-11-07T05:00:02.985Z,74.89
2022-11-07T05:02:06.510Z,74.85
2022-11-07T05:04:09.172Z,74.83
2022-11-07T05:06:15.966Z,74.56
2022-11-07T05:08:19.327Z,74.84
2022-11-07T05:10:24.687Z,74.67
2022-11-07T05:12:27.938Z,74.63
2022-11-07T05:14:31.623Z,74.92
2022-11-07T05:16:35.987Z,74.48
2022-11-07T05:18:38.084Z,74.85
2022-11-07T05:20:40.696Z,74.87
2022-11-07T05:22:56.233Z,74.64
2022-11-07T05:24:58.565Z,74.79
2022-11-07T05:27:01.133Z,74.97
2022-11-07T05:29:03.352Z,74.82
2022-11-07T05:31:07.552Z,74.85
2022-11-07T05:33:12.685Z,75.22
2022-11-07T05:35:15.485Z,74.96
2022-11-07T05:37:17.664Z,75.12
2022-11-07T05:39:19.863Z,74.92
2022-11-07T05:41:22.784Z,75.08
2022-11-07T05:43:25.045Z,74.89
2022-11-07T05:45:28.303Z,75.33
2022-11-07T05:47:30.544Z,75.17
2022-11-07T05:49:32.621Z,75.27
2022-11-07T05:51:34.761Z,75.10
2022-11-07T05:53:36.957Z,75.29
2022-11-07T05:55:39.059Z,75.35
2022-11-07T05:57:41.060Z,75.75
2022-11-07T05:59:43.105Z,75.75
2022-11-07T06:01:47.722Z,76.13
2022-11-07T06:03:53.092Z,75.76
2022-11-07T06:05:55.333Z,75.68
2022-11-07T06:07:57.621Z,75.42
2022-11-07T06:09:59.652Z,75.58
2022-11-07T06:12:04.007Z,75.58
2022-11-07T06:14:06.347Z,75.63
2022-11-07T06:16:08.719Z,75.77
2022-11-07T06:18:15.765Z,75.64
2022-11-07T06:20:17.784Z,75.43
2022-11-07T06:22:19.783Z,75.22
2022-11-07T06:24:21.945Z,75.23
2022-11-07T06:26:23.974Z,75.48
2022-11-07T06:28:26.086Z,75.40
2022-11-07T06:30:28.753Z,75.63
2022-11-07T06:32:31.025Z,75.59
2022-11-07T06:34:33.151Z,76.17
2022-11-07T06:36:35.285Z,76.27
2022-11-07T06:38:38.583Z,75.97
2022-11-07T06:40:41.572Z,75.95
2022-11-07T06:42:43.771Z,76.48
2022-11-07T06:44:45.724Z,76.35
2022-11-07T06:46:47.906Z,76.06
2022-11-07T06:48:50.133Z,76.43
2022-11-07T06:51:02.964Z,76.35
2022-11-07T06:53:07.617Z,76.31
2022-11-07T06:55:09.948Z,76.43
2022-11-07T06:57:12.124Z,76.45
2022-11-07T06:59:14.285Z,76.53
2022-11-07T07:01:16.812Z,76.39
2022-11-07T07:03:19.148Z,76.31
2022-11-07T07:05:22.132Z,76.52
2022-11-07T07:07:24.335Z,76.64
2022-11-07T07:09:26.480Z,76.67
2022-11-07T07:11:29.091Z,76.83
2022-11-07T07:13:31.541Z,76.92
2022-11-07T07:15:49.509Z,76.96
2022-11-07T07:17:52.358Z,77.41
2022-11-07T07:19:54.458Z,77.57
2022-11-07T07:21:56.468Z,77.37
2022-11-07T07:23:58.481Z,77.22
2022-11-07T07:26:01.969Z,77.41
2022-11-07T07:28:04.747Z,77.17
2022-11-07T07:30:08.105Z,77.02
2022-11-07T07:32:10.182Z,76.79
2022-11-07T07:34:12.313Z,77.06
2022-11-07T07:36:20.204Z,76.96
2022-11-07T07:38:27.854Z,76.98
2022-11-07T07:40:30.185Z,76.71
2022-11-07T07:42:32.433Z,76.89
2022-11-07T07:44:34.814Z,77.09
2022-11-07T07:46:36.946Z,77.03
2022-11-07T07:48:39.025Z,77.00
2022-11-07T07:50:41.095Z,76.83
2022-11-07T07:52:43.252Z,77.01
2022-11-07T07:54:45.381Z,77.08
2022-11-07T07:56:47.544Z,76.96
2022-11-07T07:58:49.716Z,76.87
2022-11-07T08:00:53.721Z,77.01
2022-11-07T08:03:02.398Z,76.80
2022-11-07T08:05:04.765Z,76.63
2022-11-07T08:07:06.967Z,76.79
2022-11-07T08:09:09.214Z,77.08
2022-11-07T08:11:11.665Z,77.08
2022-11-07T08:13:13.980Z,76.73
2022-11-07T08:15:18.006Z,76.62
2022-11-07T08:17:20.065Z,76.82
2022-11-07T08:19:22.405Z,77.07
2022-11-07T08:21:24.523Z,76.91
2022-11-07T08:23:26.581Z,76.93
2022-11-07T08:25:28.705Z,76.71
2022-11-07T08:27:30.987Z,76.69
2022-11-07T08:29:33.007Z,76.48
2022-11-07T08:31:43.295Z,76.50
2022-11-07T08:33:45.741Z,76.43
2022-11-07T08:35:47.793Z,76.41
2022-11-07T08:37:53.106Z,76.14
2022-11-07T08:39:55.308Z,76.02
2022-11-07T08:41:57.414Z,76.65
2022-11-07T08:44:01.005Z,76.27
2022-11-07T08:46:05.916Z,76.64
2022-11-07T08:48:11.807Z,77.27
2022-11-07T08:50:15.717Z,77.37
2022-11-07T08:52:21.674Z,77.31
2022-11-07T08:54:26.161Z,77.35
2022-11-07T08:56:28.626Z,77.24
2022-11-07T08:58:35.980Z,77.36
2022-11-07T09:00:38.273Z,77.51
2022-11-07T09:03:18.384Z,77.79
2022-11-07T09:05:53.814Z,78.75
2022-11-07T09:07:56.810Z,78.80
2022-11-07T09:09:58.979Z,79.50
2022-11-07T09:12:01.038Z,79.60
2022-11-07T09:14:08.215Z,79.74
2022-11-07T09:16:11.490Z,79.72
2022-11-07T09:18:13.507Z,79.44
2022-11-07T09:20:15.853Z,79.87
2022-11-07T09:22:17.898Z,79.77
2022-11-07T09:24:20.219Z,79.77
2022-11-07T09:26:22.706Z,79.59
2022-11-07T09:28:34.485Z,79.41
2022-11-07T09:30:37.027Z,79.36
2022-11-07T09:32:44.922Z,78.89
2022-11-07T09:37:25.227Z,79.19
2022-11-07T09:39:31.953Z,79.04
2022-11-07T09:51:34.213Z,78.39
2022-11-07T09:53:42.484Z,78.87
2022-11-07T09:55:57.370Z,78.13
2022-11-07T09:58:20.839Z,78.13
2022-11-07T10:00:23.461Z,78.21
2022-11-07T10:02:30.224Z,78.39
2022-11-07T10:04:31.928Z,78.84
2022-11-07T10:06:41.173Z,79.23
2022-11-07T10:09:02.656Z,79.67
2022-11-07T10:11:13.121Z,79.63
2022-11-07T10:13:41.758Z,79.85
2022-11-07T10:15:46.199Z,79.78
2022-11-07T10:18:12.509Z,79.89
2022-11-07T10:20:34.184Z,80.00
2022-11-07T10:22:58.185Z,79.92
2022-11-07T10:25:07.216Z,79.68
2022-11-07T10:27:12.487Z,79.97
2022-11-07T10:29:19.963Z,79.84
2022-11-07T10:31:21.963Z,79.69
2022-11-07T10:33:45.525Z,79.66
2022-11-07T10:35:55.076Z,79.69
2022-11-07T10:37:59.715Z,78.99
2022-11-07T10:40:01.366Z,78.89
2022-11-07T10:42:07.261Z,79.64
2022-11-07T10:44:16.832Z,79.94
2022-11-07T10:46:27.281Z,80.39
2022-11-07T10:48:33.243Z,79.87
2022-11-07T10:50:34.911Z,79.79
2022-11-07T10:52:36.603Z,79.70
2022-11-07T10:54:40.267Z,79.83
2022-11-07T10:56:47.568Z,79.74
2022-11-07T10:58:49.466Z,80.21
2022-11-07T11:01:01.055Z,79.91
2022-11-07T11:03:02.932Z,79.93
2022-11-07T11:05:19.445Z,80.29
2022-11-07T11:07:27.158Z,80.31
2022-11-07T11:09:35.049Z,80.42
2022-11-07T11:11:51.802Z,80.27
2022-11-07T11:14:11.157Z,80.26
2022-11-07T11:16:28.249Z,80.28
2022-11-07T11:18:29.906Z,80.24
2022-11-07T11:20:31.556Z,80.69
2022-11-07T11:22:42.567Z,80.66
2022-11-07T11:24:48.907Z,80.42
2022-11-07T11:26:52.513Z,80.19
2022-11-07T11:29:11.157Z,80.71
2022-11-07T11:31:25.970Z,80.24
2022-11-07T11:33:36.891Z,80.04
2022-11-07T11:35:57.174Z,79.41
2022-11-07T11:38:45.050Z,79.11
2022-11-07T11:40:59.260Z,78.94
2022-11-07T11:43:23.984Z,78.72
2022-11-07T11:45:54.726Z,78.71
2022-11-07T11:48:20.690Z,78.52
2022-11-07T11:50:31.556Z,77.88
2022-11-07T11:52:33.201Z,78.38
2022-11-07T11:54:35.126Z,78.64
2022-11-07T11:56:55.044Z,79.56
2022-11-07T11:59:20.595Z,79.94
2022-11-07T12:04:07.926Z,80.35
2022-11-07T12:06:12.997Z,80.79
2022-11-07T12:08:29.543Z,80.63
2022-11-07T12:11:07.476Z,80.66
2022-11-07T12:13:22.067Z,80.75
2022-11-07T12:15:48.988Z,80.56
2022-11-07T12:18:22.584Z,80.20
2022-11-07T12:20:34.751Z,80.38
2022-11-07T12:22:44.830Z,80.19
2022-11-07T12:25:10.013Z,80.55
2022-11-07T12:27:40.855Z,80.85
2022-11-07T12:30:01.288Z,81.25
2022-11-07T12:32:25.238Z,82.92
2022-11-07T12:34:40.451Z,84.84
2022-11-07T12:36:44.928Z,85.38
2022-11-07T12:39:28.130Z,85.70
2022-11-07T12:41:41.451Z,85.65
2022-11-07T12:44:25.692Z,86.52
2022-11-07T12:46:54.223Z,86.83
2022-11-07T12:49:11.114Z,85.82
2022-11-07T12:51:49.956Z,86.21
2022-11-07T12:54:33.249Z,85.74
2022-11-07T12:56:37.811Z,85.82
2022-11-07T12:58:42.766Z,85.35
2022-11-07T13:00:45.790Z,85.55
2022-11-07T13:03:04.668Z,85.22
2022-11-07T13:05:25.178Z,84.63
2022-11-07T13:08:08.183Z,84.59
2022-11-07T13:10:27.445Z,84.20
2022-11-07T13:12:41.790Z,84.07
2022-11-07T13:14:44.372Z,83.35
2022-11-07T13:16:52.554Z,83.23
2022-11-07T13:18:54.523Z,83.28
2022-11-07T13:21:05.052Z,83.75
2022-11-07T13:23:16.337Z,83.15
2022-11-07T13:25:18.246Z,82.82
2022-11-07T13:27:25.621Z,82.44
2022-11-07T13:29:38.342Z,82.07
2022-11-07T13:31:45.658Z,82.00
2022-11-07T13:33:47.384Z,81.72
2022-11-07T13:35:54.849Z,81.51
2022-11-07T13:38:08.555Z,81.33
2022-11-07T13:40:25.585Z,80.84
2022-11-07T13:42:30.512Z,80.85
2022-11-07T13:44:36.495Z,80.67
2022-11-07T13:46:51.196Z,80.39
2022-11-07T13:49:00.711Z,79.84
2022-11-07T13:51:18.203Z,79.61
2022-11-07T13:53:31.103Z,79.11
2022-11-07T13:55:44.768Z,78.75
2022-11-07T13:58:11.181Z,78.44
2022-11-07T14:00:15.992Z,77.79
2022-11-07T14:02:29.715Z,77.97
2022-11-07T14:04:39.818Z,77.49
2022-11-07T14:06:47.324Z,77.93
2022-11-07T14:08:49.144Z,78.14
2022-11-07T14:10:52.651Z,78.27
2022-11-07T14:13:11.844Z,77.92
2022-11-07T14:15:16.861Z,77.97
2022-11-07T14:17:20.882Z,77.85
2022-11-07T14:19:27.238Z,77.85
2022-11-07T14:21:53.836Z,78.25
2022-11-07T14:23:56.307Z,77.75
2022-11-07T14:26:17.016Z,78.10
2022-11-07T14:28:18.974Z,78.35
2022-11-07T14:30:22.697Z,78.43
2022-11-07T14:32:30.721Z,78.90
2022-11-07T14:34:44.676Z,78.75
2022-11-07T14:36:55.652Z,79.63
2022-11-07T14:39:14.357Z,79.44
2022-11-07T14:41:18.737Z,79.63
2022-11-07T14:43:23.252Z,79.47
2022-11-07T14:45:56.589Z,79.02
2022-11-07T14:47:48.529Z,79.13
2022-11-07T14:49:52.370Z,79.16
2022-11-07T14:51:55.713Z,78.63
2022-11-07T14:54:13.415Z,78.67
2022-11-07T14:56:18.931Z,78.86
2022-11-07T14:58:24.058Z,78.98
2022-11-07T15:00:25.797Z,78.98
2022-11-07T15:02:31.106Z,79.44
2022-11-07T15:04:37.090Z,78.87
2022-11-07T15:06:43.918Z,78.84
2022-11-07T15:08:56.951Z,78.55
2022-11-07T15:11:19.373Z,78.52
2022-11-07T15:13:24.513Z,78.59
2022-11-07T15:15:29.098Z,78.05
2022-11-07T15:17:31.048Z,78.56
2022-11-07T15:19:34.798Z,77.69
2022-11-07T15:21:52.536Z,77.58
2022-11-07T15:23:54.731Z,77.33
2022-11-07T15:25:59.232Z,76.41
2022-11-07T15:28:23.425Z,76.21
2022-11-07T15:30:27.055Z,76.43
2022-11-07T15:32:36.620Z,76.50
2022-11-07T15:35:00.757Z,75.98
2022-11-07T15:37:01.007Z,76.09
2022-11-07T15:39:02.646Z,75.51
2022-11-07T15:41:04.274Z,75.85
2022-11-07T15:43:05.943Z,75.98
2022-11-07T15:45:08.205Z,75.56
2022-11-07T15:47:19.151Z,76.12
2022-11-07T15:49:20.828Z,75.96
2022-11-07T15:51:22.613Z,76.20
2022-11-07T15:53:26.851Z,75.92
2022-11-07T15:55:28.535Z,77.14
2022-11-07T15:57:31.448Z,77.81
2022-11-07T15:59:36.079Z,77.67
2022-11-07T16:01:39.093Z,78.96
2022-11-07T16:03:40.899Z,79.20
2022-11-07T16:05:44.389Z,79.69
2022-11-07T16:07:46.680Z,80.65
2022-11-07T16:09:49.046Z,81.05
2022-11-07T16:11:51.848Z,80.54
2022-11-07T16:14:14.732Z,80.58
2022-11-07T16:16:22.454Z,80.40
2022-11-07T16:18:24.457Z,79.37
2022-11-07T16:20:26.156Z,78.41
2022-11-07T16:22:32.024Z,78.53
2022-11-07T16:24:33.669Z,78.63
2022-11-07T16:26:36.891Z,77.90
2022-11-07T16:28:43.753Z,77.47
2022-11-07T16:30:53.625Z,77.07
2022-11-07T16:32:55.586Z,76.87
2022-11-07T16:35:08.436Z,76.44
2022-11-07T16:37:11.966Z,75.48
2022-11-07T16:39:21.633Z,75.40
2022-11-07T16:41:24.856Z,75.43
2022-11-07T16:43:26.996Z,75.39
2022-11-07T16:45:29.441Z,75.00
2022-11-07T16:47:38.054Z,74.85
2022-11-07T16:49:39.790Z,74.78
2022-11-07T16:51:45.069Z,74.31
2022-11-07T16:53:47.432Z,74.41
2022-11-07T16:55:53.723Z,74.12
2022-11-07T16:57:55.755Z,73.24
2022-11-07T16:59:57.449Z,72.89
2022-11-07T17:01:59.274Z,72.11
2022-11-07T17:04:01.158Z,71.55
2022-11-07T17:06:04.211Z,71.84
2022-11-07T17:08:16.226Z,71.43
2022-11-07T17:10:18.968Z,71.40
2022-11-07T17:12:22.170Z,71.04
2022-11-07T17:14:23.801Z,70.85
2022-11-07T17:16:29.928Z,71.45
2022-11-07T17:18:31.864Z,71.43
2022-11-07T17:20:50.587Z,71.26
2022-11-07T17:22:52.772Z,70.96
2022-11-07T17:24:54.401Z,70.85
2022-11-07T17:26:56.243Z,71.07
2022-11-07T17:28:58.990Z,71.30
2022-11-07T17:31:00.592Z,70.98
2022-11-07T17:33:03.543Z,71.24
2022-11-07T17:35:30.358Z,71.59
2022-11-07T17:37:27.185Z,71.69
2022-11-07T17:39:28.955Z,71.95
2022-11-07T17:41:30.725Z,72.08
2022-11-07T17:43:32.343Z,72.11
2022-11-07T17:45:34.037Z,72.38
2022-11-07T17:47:35.983Z,72.96
2022-11-07T17:49:37.641Z,73.31
2022-11-07T17:51:40.813Z,73.69
2022-11-07T17:53:43.571Z,73.53
2022-11-07T17:55:45.137Z,73.54
2022-11-07T17:57:46.858Z,73.53
2022-11-07T17:59:49.315Z,73.27
2022-11-07T18:01:51.470Z,73.26
2022-11-07T18:03:54.120Z,73.08
2022-11-07T18:05:55.749Z,73.41
2022-11-07T18:07:57.355Z,72.92
2022-11-07T18:09:59.084Z,73.05
2022-11-07T18:12:00.765Z,72.43
2022-11-07T18:14:02.936Z,71.37
2022-11-07T18:16:15.553Z,71.41
2022-11-07T18:18:17.380Z,71.15
2022-11-07T18:20:19.165Z,71.18
2022-11-07T18:22:20.891Z,71.12
2022-11-07T18:24:22.763Z,71.36
2022-11-07T18:26:33.514Z,71.08
2022-11-07T18:28:35.937Z,70.91
2022-11-07T18:30:37.535Z,71.60
2022-11-07T18:32:39.150Z,72.65
2022-11-07T18:34:40.973Z,73.43
2022-11-07T18:36:44.846Z,74.46
2022-11-07T18:38:47.253Z,73.96
2022-11-07T18:40:58.927Z,75.04
2022-11-07T18:43:00.553Z,74.78
2022-11-07T18:45:02.204Z,75.46
2022-11-07T18:47:04.269Z,76.57
2022-11-07T18:49:06.580Z,77.14
2022-11-07T18:51:11.469Z,77.93
2022-11-07T18:53:13.887Z,77.96
2022-11-07T18:55:15.706Z,78.61
2022-11-07T18:57:17.923Z,78.86
2022-11-07T18:59:20.089Z,78.52
2022-11-07T19:01:41.131Z,78.80
2022-11-07T19:03:44.948Z,79.57
2022-11-07T19:05:47.586Z,78.79
2022-11-07T19:07:49.853Z,79.13
2022-11-07T19:09:52.725Z,79.20
2022-11-07T19:11:55.123Z,78.98
2022-11-07T19:14:07.671Z,79.17
2022-11-07T19:16:12.172Z,78.89
2022-11-07T19:18:14.125Z,78.15
2022-11-07T19:20:23.800Z,78.16
2022-11-07T19:22:27.674Z,77.90
2022-11-07T19:24:29.862Z,77.48
2022-11-07T19:26:31.791Z,77.51
2022-11-07T19:28:35.325Z,77.16
2022-11-07T19:30:39.090Z,76.79
2022-11-07T19:32:41.113Z,76.39
2022-11-07T19:34:42.724Z,76.44
2022-11-07T19:36:55.519Z,75.95
2022-11-07T19:38:57.312Z,75.71
2022-11-07T19:41:03.751Z,75.50
2022-11-07T19:43:05.753Z,75.09
2022-11-07T19:45:16.661Z,74.98
2022-11-07T19:47:21.558Z,75.29
2022-11-07T19:49:28.224Z,74.71
2022-11-07T19:51:47.609Z,74.57
2022-11-07T19:53:57.109Z,74.03
2022-11-07T19:56:07.664Z,73.77
2022-11-07T19:58:09.336Z,73.51
2022-11-07T20:00:11.669Z,73.47
2022-11-07T20:04:37.267Z,74.11
2022-11-07T20:06:39.372Z,74.14
2022-11-07T20:08:43.291Z,74.77
2022-11-07T20:10:48.710Z,74.97
2022-11-07T20:12:50.575Z,75.08
2022-11-07T20:14:52.876Z,75.62
2022-11-07T20:16:54.589Z,75.26
2022-11-07T20:18:56.279Z,75.08
2022-11-07T20:21:03.275Z,74.41
2022-11-07T20:23:04.932Z,73.83
2022-11-07T20:25:07.425Z,73.40
2022-11-07T20:27:09.058Z,73.03
2022-11-07T20:29:11.458Z,73.03
2022-11-07T20:31:15.876Z,73.06
2022-11-07T20:33:18.066Z,72.52
2022-11-07T20:35:19.946Z,72.26
2022-11-07T20:37:22.036Z,72.06
2022-11-07T20:39:23.843Z,71.54
2022-11-07T20:41:27.247Z,71.38
2022-11-07T20:43:29.440Z,71.03
2022-11-07T20:45:31.084Z,71.31
2022-11-07T20:47:33.177Z,71.05
2022-11-07T20:49:35.968Z,70.55
2022-11-07T20:51:43.120Z,70.47
2022-11-07T20:53:49.715Z,69.73
2022-11-07T20:55:51.877Z,69.90
2022-11-07T20:57:53.590Z,69.78
2022-11-07T20:59:55.365Z,69.33
2022-11-07T21:02:02.739Z,68.87
2022-11-07T21:04:16.892Z,68.57
2022-11-07T21:06:19.146Z,68.12
2022-11-07T21:08:21.721Z,68.06
2022-11-07T21:10:23.410Z,67.86
2022-11-07T21:12:25.024Z,68.07
2022-11-07T21:14:26.813Z,67.48
2022-11-07T21:16:29.109Z,67.10
2022-11-07T21:18:30.811Z,66.83
2022-11-07T21:20:32.724Z,66.63
2022-11-07T21:22:35.582Z,66.30
2022-11-07T21:24:37.368Z,66.42
2022-11-07T21:26:39.812Z,66.20
2022-11-07T21:28:42.239Z,66.25
2022-11-07T21:30:45.301Z,66.41
2022-11-07T21:32:47.046Z,66.42
2022-11-07T21:34:48.691Z,66.41
2022-11-07T21:36:50.498Z,65.77
2022-11-07T21:38:54.479Z,65.79
2022-11-07T21:40:56.206Z,65.32
2022-11-07T21:42:58.220Z,65.49
2022-11-07T21:45:07.273Z,65.96
2022-11-07T21:47:08.900Z,65.45
2022-11-07T21:49:17.852Z,65.11
2022-11-07T21:51:24.914Z,65.24
2022-11-07T21:53:27.147Z,65.19
2022-11-07T21:55:29.224Z,65.28
2022-11-07T21:57:31.160Z,65.07
2022-11-07T21:59:33.145Z,65.31
2022-11-07T22:01:41.914Z,64.96
2022-11-07T22:04:05.129Z,64.74
2022-11-07T22:06:07.366Z,64.69
2022-11-07T22:08:09.934Z,65.10
2022-11-07T22:10:12.006Z,64.88
2022-11-07T22:12:14.329Z,64.78
2022-11-07T22:14:21.736Z,64.62
2022-11-07T22:16:24.208Z,64.32
2022-11-07T22:18:26.409Z,64.53
2022-11-07T22:20:28.537Z,63.86
2022-11-07T22:22:30.747Z,63.47
2022-11-07T22:24:33.707Z,63.54
2022-11-07T22:26:37.239Z,64.10
2022-11-07T22:28:45.593Z,63.41
2022-11-07T22:30:48.744Z,62.98
2022-11-07T22:32:52.206Z,63.46
2022-11-07T22:34:53.933Z,62.61
2022-11-07T22:36:56.228Z,62.99
2022-11-07T22:38:59.000Z,62.64
2022-11-07T22:41:03.058Z,62.58
2022-11-07T22:43:05.025Z,62.72
2022-11-07T22:45:08.044Z,62.12
2022-11-07T22:47:10.207Z,61.74
2022-11-07T22:49:12.237Z,62.18
2022-11-07T22:51:21.697Z,61.36
2022-11-07T22:53:23.663Z,61.42
2022-11-07T22:55:25.766Z,61.29
2022-11-07T22:57:27.773Z,61.21
2022-11-07T22:59:29.860Z,61.21
2022-11-07T23:01:42.101Z,60.90
2022-11-07T23:03:44.495Z,60.56
2022-11-07T23:05:46.201Z,60.65
2022-11-07T23:07:54.996Z,60.44
2022-11-07T23:10:00.661Z,59.86
2022-11-07T23:12:03.304Z,59.66
2022-11-07T23:14:07.934Z,59.69
2022-11-07T23:16:35.824Z,59.94
2022-11-07T23:18:37.936Z,59.80
2022-11-07T23:20:58.656Z,59.71
2022-11-07T23:23:03.854Z,59.40
2022-11-07T23:25:06.401Z,59.48
2022-11-07T23:27:09.240Z,59.22
2022-11-07T23:29:18.094Z,59.59
2022-11-07T23:31:20.431Z,58.91
2022-11-07T23:33:22.522Z,59.05
2022-11-07T23:35:24.528Z,58.86
2022-11-07T23:37:26.559Z,58.81
2022-11-07T23:39:28.764Z,58.87
2022-11-07T23:41:30.791Z,58.77
2022-11-07T23:43:34.394Z,59.22
2022-11-07T23:45:55.267Z,58.48
2022-11-07T23:48:18.481Z,59.03
2022-11-07T23:50:39.118Z,59.17
2022-11-07T23:52:41.171Z,59.17
2022-11-07T23:55:01.441Z,58.82
2022-11-07T23:57:03.426Z,59.04
2022-11-07T23:59:24.229Z,58.73
